Main page
METAR-TAF:

METAR-TAF

Airports :

Blackpool Airport

Blackpool, England

latitude: 53-46N, longitude: 003-02W, elevation: 10 m

Current weather observation

The report was made 34 minutes ago, at 07:20 UTC
Wind 4 kt from the North/Northeast
Temperature 4°C
Humidity 93%
Pressure 1016 hPa
Visibility: 4000 m
Overcast at a height of 800 ft
mist, light drizzle

METAR: EGNH 200720Z 02004KT 4000 BR -DZ OVC008 04/03 Q1016

Time: 07:54 (07:54 UTC)

Forecast

The report was made 51 minutes ago, at 07:03 UTC
Forecast valid from 20 at 07 UTC to 20 at 15 UTC
Wind 6 kt from the Northeast
Visibility: 8000 m
Broken clouds at a height of 800 ft
Temporary
from 20 at 07 UTC to 20 at 10 UTC
Visibility: 4000 m
light drizzle, mist
Becoming
from 20 at 10 UTC to 20 at 13 UTC
Visibility 10 km or more
Scattered clouds at a height of 2500 ft

TAF: EGNH 200703Z 2007/2015 05006KT 8000 BKN008 TEMPO 2007/2010 4000 -DZ BR BECMG 2010/2013 9999 NSW SCT025

Weather observations and forecasts of more than 4000 airports (METAR and TAF reports).

The available stations are represented by yellow and red dots on the map.

Hover mouse over dot to see the name of the station.

Then click to see weather observations and forecasts.

To change the map : click on the green buttons with a black cross to zoom in, on the green button with a dash to zoom out, or on the green arrows for adjacent maps.


METAR-TAF: